Weatherby, Missouri
Current Conditions -  °F | °C
As of 1:53 PM on Thursday 30 Oct 2014 (Local Time) from KSTJ Reporting Station
Clear Clear  
Wind Chill: 67°   Ceiling: Unl
Heat Index: 67°   Visibility: 10mi
Dew Point: 40°   Wind: 18mph
Humidity: 37%   Direction: 350°N
Pressure: 30.02"   Gusts: 29mph
Location:  39.91°N, 94.24°W
Report Text: KSTJ 301853Z 35016G25KT 10SM CLR 19/04 A3002 RMK AO2 SLP163 T01940044
Loading
Personal Weather Stations






























Interactive Weather Map
Tropical Storm Tracking
New forecast layout! Learn more

10-Day Weather Forecast

Advertisements
Track Severe Weather on mobile